sensor_id;sensor_type;location;lat;lon;timestamp;pressure;altitude;pressure_sealevel;temperature;humidity
63395;BME280;49531;-34.520;150.798;2023-04-20T00:00:36;101534.91;;;20.95;56.10
63395;BME280;49531;-34.520;150.798;2023-04-20T00:03:03;101516.44;;;20.81;55.89
63395;BME280;49531;-34.520;150.798;2023-04-20T00:05:30;101529.13;;;20.92;56.32
63395;BME280;49531;-34.520;150.798;2023-04-20T00:07:58;101542.22;;;20.95;56.02
63395;BME280;49531;-34.520;150.798;2023-04-20T00:10:26;101537.88;;;20.94;56.14
63395;BME280;49531;-34.520;150.798;2023-04-20T00:12:53;101539.91;;;20.87;56.07
63395;BME280;49531;-34.520;150.798;2023-04-20T00:15:21;101528.28;;;20.75;56.27
63395;BME280;49531;-34.520;150.798;2023-04-20T00:17:48;101546.41;;;20.86;56.21
63395;BME280;49531;-34.520;150.798;2023-04-20T00:20:16;101536.59;;;20.85;56.18
63395;BME280;49531;-34.520;150.798;2023-04-20T00:22:44;101540.38;;;20.84;56.11
63395;BME280;49531;-34.520;150.798;2023-04-20T00:25:11;101549.69;;;20.88;56.07
63395;BME280;49531;-34.520;150.798;2023-04-20T00:27:38;101537.00;;;20.77;56.42
63395;BME280;49531;-34.520;150.798;2023-04-20T00:30:06;101535.84;;;20.73;56.55
63395;BME280;49531;-34.520;150.798;2023-04-20T00:32:33;101537.41;;;20.69;56.58
63395;BME280;49531;-34.520;150.798;2023-04-20T00:35:01;101545.53;;;20.69;56.63
63395;BME280;49531;-34.520;150.798;2023-04-20T00:37:28;101538.84;;;20.59;57.03
63395;BME280;49531;-34.520;150.798;2023-04-20T00:39:56;101530.00;;;20.52;56.68
63395;BME280;49531;-34.520;150.798;2023-04-20T00:42:24;101521.28;;;20.50;56.95
63395;BME280;49531;-34.520;150.798;2023-04-20T00:44:51;101536.25;;;20.53;57.30
63395;BME280;49531;-34.520;150.798;2023-04-20T00:47:18;101544.03;;;20.61;57.41
63395;BME280;49531;-34.520;150.798;2023-04-20T00:49:46;101538.03;;;20.47;57.48
63395;BME280;49531;-34.520;150.798;2023-04-20T00:52:13;101532.47;;;20.54;57.29
63395;BME280;49531;-34.520;150.798;2023-04-20T00:54:40;101548.63;;;20.60;57.01
63395;BME280;49531;-34.520;150.798;2023-04-20T00:57:08;101531.53;;;20.48;57.07
63395;BME280;49531;-34.520;150.798;2023-04-20T00:59:36;101542.03;;;20.56;57.01
63395;BME280;49531;-34.520;150.798;2023-04-20T01:02:04;101534.72;;;20.57;56.85
63395;BME280;49531;-34.520;150.798;2023-04-20T01:04:31;101535.88;;;20.61;56.86
63395;BME280;49531;-34.520;150.798;2023-04-20T01:07:00;101546.50;;;20.62;56.77
63395;BME280;49531;-34.520;150.798;2023-04-20T01:09:28;101539.41;;;20.61;56.79
63395;BME280;49531;-34.520;150.798;2023-04-20T01:11:56;101543.88;;;20.68;56.55
63395;BME280;49531;-34.520;150.798;2023-04-20T01:14:23;101513.72;;;20.52;56.48
63395;BME280;49531;-34.520;150.798;2023-04-20T01:16:50;101537.41;;;20.69;56.48
63395;BME280;49531;-34.520;150.798;2023-04-20T01:19:17;101536.81;;;20.67;56.45
63395;BME280;49531;-34.520;150.798;2023-04-20T01:21:44;101540.94;;;20.69;56.35
63395;BME280;49531;-34.520;150.798;2023-04-20T01:24:12;101529.38;;;20.62;56.25
63395;BME280;49531;-34.520;150.798;2023-04-20T01:26:39;101537.63;;;20.67;56.32
63395;BME280;49531;-34.520;150.798;2023-04-20T01:29:06;101541.75;;;20.70;56.34
63395;BME280;49531;-34.520;150.798;2023-04-20T01:31:33;101530.56;;;20.66;56.24
63395;BME280;49531;-34.520;150.798;2023-04-20T01:34:01;101529.59;;;20.72;56.26
63395;BME280;49531;-34.520;150.798;2023-04-20T01:36:28;101526.19;;;20.65;56.24
63395;BME280;49531;-34.520;150.798;2023-04-20T01:38:56;101529.84;;;20.71;56.20
63395;BME280;49531;-34.520;150.798;2023-04-20T01:41:24;101529.59;;;20.72;56.16
63395;BME280;49531;-34.520;150.798;2023-04-20T01:43:52;101527.47;;;20.74;56.02
63395;BME280;49531;-34.520;150.798;2023-04-20T01:46:19;101515.91;;;20.67;56.07
63395;BME280;49531;-34.520;150.798;2023-04-20T01:48:46;101526.06;;;20.72;56.22
63395;BME280;49531;-34.520;150.798;2023-04-20T01:51:13;101519.56;;;20.73;56.08
63395;BME280;49531;-34.520;150.798;2023-04-20T01:53:40;101512.72;;;20.70;56.19
63395;BME280;49531;-34.520;150.798;2023-04-20T01:56:07;101524.75;;;20.74;56.18
63395;BME280;49531;-34.520;150.798;2023-04-20T01:58:35;101518.31;;;20.80;56.11
63395;BME280;49531;-34.520;150.798;2023-04-20T02:01:02;101514.78;;;20.80;56.17
63395;BME280;49531;-34.520;150.798;2023-04-20T02:03:29;101499.81;;;20.77;55.92
63395;BME280;49531;-34.520;150.798;2023-04-20T02:05:56;101501.72;;;20.77;55.92
63395;BME280;49531;-34.520;150.798;2023-04-20T02:08:23;101498.66;;;20.73;56.07
63395;BME280;49531;-34.520;150.798;2023-04-20T02:10:51;101504.00;;;20.85;55.84
63395;BME280;49531;-34.520;150.798;2023-04-20T02:13:19;101479.06;;;20.71;55.92
63395;BME280;49531;-34.520;150.798;2023-04-20T02:15:46;101498.00;;;20.83;55.98
63395;BME280;49531;-34.520;150.798;2023-04-20T02:18:13;101485.31;;;20.72;56.05
63395;BME280;49531;-34.520;150.798;2023-04-20T02:20:42;101498.31;;;20.70;56.13
63395;BME280;49531;-34.520;150.798;2023-04-20T02:23:10;101495.94;;;20.73;56.24
63395;BME280;49531;-34.520;150.798;2023-04-20T02:25:37;101479.16;;;20.76;56.14
63395;BME280;49531;-34.520;150.798;2023-04-20T02:28:04;101478.00;;;20.72;56.11
63395;BME280;49531;-34.520;150.798;2023-04-20T02:30:31;101471.28;;;20.75;56.06
63395;BME280;49531;-34.520;150.798;2023-04-20T02:32:59;101477.59;;;20.80;56.04
63395;BME280;49531;-34.520;150.798;2023-04-20T02:35:26;101460.66;;;20.73;56.20
63395;BME280;49531;-34.520;150.798;2023-04-20T02:37:53;101452.91;;;20.82;55.86
63395;BME280;49531;-34.520;150.798;2023-04-20T02:40:21;101450.88;;;20.89;55.51
63395;BME280;49531;-34.520;150.798;2023-04-20T02:42:48;101452.28;;;20.91;55.39
63395;BME280;49531;-34.520;150.798;2023-04-20T02:45:15;101459.41;;;20.81;55.81
63395;BME280;49531;-34.520;150.798;2023-04-20T02:47:42;101452.59;;;20.78;55.88
63395;BME280;49531;-34.520;150.798;2023-04-20T02:50:10;101454.16;;;20.91;55.42
63395;BME280;49531;-34.520;150.798;2023-04-20T02:52:37;101445.00;;;20.80;55.82
63395;BME280;49531;-34.520;150.798;2023-04-20T02:55:04;101447.00;;;20.85;55.77
63395;BME280;49531;-34.520;150.798;2023-04-20T02:57:32;101440.69;;;20.79;55.72
63395;BME280;49531;-34.520;150.798;2023-04-20T02:59:59;101451.59;;;20.84;55.85
63395;BME280;49531;-34.520;150.798;2023-04-20T03:02:26;101439.91;;;20.84;55.68
63395;BME280;49531;-34.520;150.798;2023-04-20T03:04:53;101443.06;;;20.76;55.83
63395;BME280;49531;-34.520;150.798;2023-04-20T03:07:21;101453.44;;;20.79;55.91
63395;BME280;49531;-34.520;150.798;2023-04-20T03:09:48;101451.53;;;20.79;55.83
63395;BME280;49531;-34.520;150.798;2023-04-20T03:12:16;101445.44;;;20.89;55.62
63395;BME280;49531;-34.520;150.798;2023-04-20T03:14:43;101448.97;;;20.89;55.58
63395;BME280;49531;-34.520;150.798;2023-04-20T03:17:11;101442.13;;;20.87;55.67
63395;BME280;49531;-34.520;150.798;2023-04-20T03:19:38;101430.94;;;20.83;55.65
63395;BME280;49531;-34.520;150.798;2023-04-20T03:22:05;101441.66;;;20.90;55.70
63395;BME280;49531;-34.520;150.798;2023-04-20T03:24:32;101444.69;;;20.93;55.75
63395;BME280;49531;-34.520;150.798;2023-04-20T03:26:59;101435.25;;;20.96;55.69
63395;BME280;49531;-34.520;150.798;2023-04-20T03:29:26;101444.06;;;21.03;55.37
63395;BME280;49531;-34.520;150.798;2023-04-20T03:31:54;101436.50;;;21.05;55.50
63395;BME280;49531;-34.520;150.798;2023-04-20T03:34:21;101420.50;;;20.92;55.48
63395;BME280;49531;-34.520;150.798;2023-04-20T03:36:48;101438.28;;;21.00;55.55
63395;BME280;49531;-34.520;150.798;2023-04-20T03:39:15;101432.53;;;20.96;55.67
63395;BME280;49531;-34.520;150.798;2023-04-20T03:41:42;101426.03;;;20.97;55.78
63395;BME280;49531;-34.520;150.798;2023-04-20T03:44:10;101418.47;;;20.99;55.64
63395;BME280;49531;-34.520;150.798;2023-04-20T03:46:39;101428.25;;;21.00;55.66
63395;BME280;49531;-34.520;150.798;2023-04-20T03:49:06;101419.84;;;21.02;55.72
63395;BME280;49531;-34.520;150.798;2023-04-20T03:51:33;101425.28;;;21.02;55.65
63395;BME280;49531;-34.520;150.798;2023-04-20T03:54:01;101423.97;;;21.04;55.58
63395;BME280;49531;-34.520;150.798;2023-04-20T03:56:28;101422.00;;;21.00;55.80
63395;BME280;49531;-34.520;150.798;2023-04-20T03:58:55;101423.66;;;21.01;55.88
63395;BME280;49531;-34.520;150.798;2023-04-20T04:01:22;101430.47;;;21.03;55.76
63395;BME280;49531;-34.520;150.798;2023-04-20T04:03:49;101427.75;;;21.03;55.70
63395;BME280;49531;-34.520;150.798;2023-04-20T04:06:16;101422.09;;;21.05;55.68
63395;BME280;49531;-34.520;150.798;2023-04-20T04:08:43;101411.72;;;21.02;55.45
63395;BME280;49531;-34.520;150.798;2023-04-20T04:11:10;101424.41;;;21.13;55.32
63395;BME280;49531;-34.520;150.798;2023-04-20T04:13:38;101438.38;;;21.05;55.51
63395;BME280;49531;-34.520;150.798;2023-04-20T04:16:06;101422.66;;;21.07;55.52
63395;BME280;49531;-34.520;150.798;2023-04-20T04:18:33;101426.13;;;21.02;55.34
63395;BME280;49531;-34.520;150.798;2023-04-20T04:21:00;101435.50;;;21.11;55.28
63395;BME280;49531;-34.520;150.798;2023-04-20T04:23:27;101424.31;;;21.08;55.38
63395;BME280;49531;-34.520;150.798;2023-04-20T04:25:55;101431.63;;;21.07;55.45
63395;BME280;49531;-34.520;150.798;2023-04-20T04:28:22;101407.19;;;20.90;55.44
63395;BME280;49531;-34.520;150.798;2023-04-20T04:30:49;101433.53;;;21.07;55.44
63395;BME280;49531;-34.520;150.798;2023-04-20T04:33:17;101413.13;;;21.04;55.35
63395;BME280;49531;-34.520;150.798;2023-04-20T04:35:45;101426.19;;;21.07;55.40
63395;BME280;49531;-34.520;150.798;2023-04-20T04:38:13;101424.97;;;20.98;55.38
63395;BME280;49531;-34.520;150.798;2023-04-20T04:40:41;101432.94;;;21.05;55.40
63395;BME280;49531;-34.520;150.798;2023-04-20T04:43:10;101429.06;;;21.01;55.24
63395;BME280;49531;-34.520;150.798;2023-04-20T04:45:38;101396.97;;;20.81;55.31
63395;BME280;49531;-34.520;150.798;2023-04-20T04:48:07;101426.94;;;21.03;55.24
63395;BME280;49531;-34.520;150.798;2023-04-20T04:50:38;101425.63;;;21.05;55.28
63395;BME280;49531;-34.520;150.798;2023-04-20T04:53:06;101434.84;;;21.04;55.32
63395;BME280;49531;-34.520;150.798;2023-04-20T04:55:33;101432.69;;;21.06;55.21
63395;BME280;49531;-34.520;150.798;2023-04-20T04:58:00;101424.72;;;21.00;55.09
63395;BME280;49531;-34.520;150.798;2023-04-20T05:00:27;101425.88;;;21.04;55.46
63395;BME280;49531;-34.520;150.798;2023-04-20T05:02:56;101416.81;;;20.98;55.38
63395;BME280;49531;-34.520;150.798;2023-04-20T05:05:23;101436.25;;;21.07;55.24
63395;BME280;49531;-34.520;150.798;2023-04-20T05:07:50;101413.50;;;20.96;55.17
63395;BME280;49531;-34.520;150.798;2023-04-20T05:10:18;101431.31;;;21.04;55.34
63395;BME280;49531;-34.520;150.798;2023-04-20T05:12:46;101412.59;;;20.90;55.03
63395;BME280;49531;-34.520;150.798;2023-04-20T05:15:14;101439.53;;;21.09;55.39
63395;BME280;49531;-34.520;150.798;2023-04-20T05:17:43;101418.53;;;20.87;55.25
63395;BME280;49531;-34.520;150.798;2023-04-20T05:20:10;101420.50;;;20.92;55.19
63395;BME280;49531;-34.520;150.798;2023-04-20T05:22:37;101439.53;;;21.09;55.12
63395;BME280;49531;-34.520;150.798;2023-04-20T05:25:05;101444.63;;;21.05;55.18
63395;BME280;49531;-34.520;150.798;2023-04-20T05:27:33;101431.56;;;21.02;54.93
63395;BME280;49531;-34.520;150.798;2023-04-20T05:30:00;101449.81;;;21.07;55.13
63395;BME280;49531;-34.520;150.798;2023-04-20T05:32:27;101445.72;;;21.04;55.02
63395;BME280;49531;-34.520;150.798;2023-04-20T05:34:54;101429.56;;;20.97;55.09
63395;BME280;49531;-34.520;150.798;2023-04-20T05:37:23;101446.53;;;21.05;55.07
63395;BME280;49531;-34.520;150.798;2023-04-20T05:39:50;101439.69;;;21.02;55.16
63395;BME280;49531;-34.520;150.798;2023-04-20T05:42:17;101432.03;;;20.99;53.83
63395;BME280;49531;-34.520;150.798;2023-04-20T05:44:44;101434.25;;;21.02;53.25
63395;BME280;49531;-34.520;150.798;2023-04-20T05:47:12;101438.81;;;21.13;53.50
63395;BME280;49531;-34.520;150.798;2023-04-20T05:49:39;101441.13;;;21.21;52.62
63395;BME280;49531;-34.520;150.798;2023-04-20T05:52:06;101447.38;;;21.22;52.52
63395;BME280;49531;-34.520;150.798;2023-04-20T05:54:33;101461.34;;;21.14;52.30
63395;BME280;49531;-34.520;150.798;2023-04-20T05:57:01;101451.22;;;21.09;52.31
63395;BME280;49531;-34.520;150.798;2023-04-20T05:59:30;101455.25;;;21.07;52.16
63395;BME280;49531;-34.520;150.798;2023-04-20T06:01:57;101448.09;;;21.01;51.73
63395;BME280;49531;-34.520;150.798;2023-04-20T06:04:25;101454.44;;;21.06;51.92
63395;BME280;49531;-34.520;150.798;2023-04-20T06:06:52;101463.25;;;21.13;51.84
63395;BME280;49531;-34.520;150.798;2023-04-20T06:09:19;101448.34;;;20.99;52.12
63395;BME280;49531;-34.520;150.798;2023-04-20T06:11:46;101447.66;;;20.92;52.15
63395;BME280;49531;-34.520;150.798;2023-04-20T06:14:13;101442.13;;;20.87;52.26
63395;BME280;49531;-34.520;150.798;2023-04-20T06:16:42;101465.69;;;20.98;52.12
63395;BME280;49531;-34.520;150.798;2023-04-20T06:19:09;101457.69;;;20.91;52.13
63395;BME280;49531;-34.520;150.798;2023-04-20T06:21:36;101459.00;;;20.89;52.26
63395;BME280;49531;-34.520;150.798;2023-04-20T06:24:04;101463.97;;;20.92;52.45
63395;BME280;49531;-34.520;150.798;2023-04-20T06:26:31;101476.47;;;20.93;52.65
63395;BME280;49531;-34.520;150.798;2023-04-20T06:28:58;101462.78;;;20.88;52.83
63395;BME280;49531;-34.520;150.798;2023-04-20T06:31:26;101460.91;;;20.72;52.36
63395;BME280;49531;-34.520;150.798;2023-04-20T06:33:53;101474.16;;;20.85;52.07
63395;BME280;49531;-34.520;150.798;2023-04-20T06:36:20;101480.06;;;20.82;52.02
63395;BME280;49531;-34.520;150.798;2023-04-20T06:38:47;101488.22;;;20.82;52.02
63395;BME280;49531;-34.520;150.798;2023-04-20T06:41:14;101492.00;;;20.81;52.14
63395;BME280;49531;-34.520;150.798;2023-04-20T06:43:41;101499.00;;;20.77;52.33
63395;BME280;49531;-34.520;150.798;2023-04-20T06:46:10;101478.75;;;20.68;52.75
63395;BME280;49531;-34.520;150.798;2023-04-20T06:48:38;101480.78;;;20.60;52.57
63395;BME280;49531;-34.520;150.798;2023-04-20T06:51:05;101503.03;;;20.74;52.38
63395;BME280;49531;-34.520;150.798;2023-04-20T06:53:32;101494.19;;;20.67;52.52
63395;BME280;49531;-34.520;150.798;2023-04-20T06:55:59;101500.91;;;20.76;52.55
63395;BME280;49531;-34.520;150.798;2023-04-20T06:58:26;101504.81;;;20.69;52.94
63395;BME280;49531;-34.520;150.798;2023-04-20T07:00:53;101508.94;;;20.71;52.52
63395;BME280;49531;-34.520;150.798;2023-04-20T07:03:21;101521.44;;;20.72;52.57
63395;BME280;49531;-34.520;150.798;2023-04-20T07:05:48;101512.03;;;20.63;52.50
63395;BME280;49531;-34.520;150.798;2023-04-20T07:08:15;101529.59;;;20.72;52.44
63395;BME280;49531;-34.520;150.798;2023-04-20T07:10:42;101528.75;;;20.72;51.84
63395;BME280;49531;-34.520;150.798;2023-04-20T07:13:09;101535.75;;;20.68;52.14
63395;BME280;49531;-34.520;150.798;2023-04-20T07:15:37;101529.03;;;20.58;52.07
63395;BME280;49531;-34.520;150.798;2023-04-20T07:18:04;101538.84;;;20.59;52.34
63395;BME280;49531;-34.520;150.798;2023-04-20T07:20:32;101537.06;;;20.53;52.41
63395;BME280;49531;-34.520;150.798;2023-04-20T07:22:59;101539.78;;;20.53;52.47
63395;BME280;49531;-34.520;150.798;2023-04-20T07:25:26;101546.63;;;20.56;52.49
63395;BME280;49531;-34.520;150.798;2023-04-20T07:27:54;101518.81;;;20.37;52.77
63395;BME280;49531;-34.520;150.798;2023-04-20T07:30:21;101544.19;;;20.43;52.40
63395;BME280;49531;-34.520;150.798;2023-04-20T07:32:49;101549.94;;;20.46;52.74
63395;BME280;49531;-34.520;150.798;2023-04-20T07:35:16;101561.28;;;20.43;52.96
63395;BME280;49531;-34.520;150.798;2023-04-20T07:37:43;101558.50;;;20.38;52.88
63395;BME280;49531;-34.520;150.798;2023-04-20T07:40:10;101572.72;;;20.45;52.99
63395;BME280;49531;-34.520;150.798;2023-04-20T07:42:37;101561.88;;;20.34;53.00
63395;BME280;49531;-34.520;150.798;2023-04-20T07:45:06;101576.41;;;20.39;53.30
63395;BME280;49531;-34.520;150.798;2023-04-20T07:47:33;101576.88;;;20.36;53.21
63395;BME280;49531;-34.520;150.798;2023-04-20T07:50:26;101581.22;;;20.37;53.14
63395;BME280;49531;-34.520;150.798;2023-04-20T07:52:53;101584.19;;;20.36;53.02
63395;BME280;49531;-34.520;150.798;2023-04-20T07:55:20;101568.03;;;20.29;53.14
63395;BME280;49531;-34.520;150.798;2023-04-20T07:57:47;101584.06;;;20.30;52.92
63395;BME280;49531;-34.520;150.798;2023-04-20T08:00:15;101584.06;;;20.30;53.01
63395;BME280;49531;-34.520;150.798;2023-04-20T08:02:43;101583.13;;;20.25;53.06
63395;BME280;49531;-34.520;150.798;2023-04-20T08:05:10;101574.88;;;20.20;52.88
63395;BME280;49531;-34.520;150.798;2023-04-20T08:07:38;101593.03;;;20.31;52.69
63395;BME280;49531;-34.520;150.798;2023-04-20T08:10:06;101599.41;;;20.25;52.71
63395;BME280;49531;-34.520;150.798;2023-04-20T08:12:34;101606.25;;;20.27;52.83
63395;BME280;49531;-34.520;150.798;2023-04-20T08:15:02;101601.28;;;20.13;53.19
63395;BME280;49531;-34.520;150.798;2023-04-20T08:17:32;101614.97;;;20.18;53.15
63395;BME280;49531;-34.520;150.798;2023-04-20T08:20:00;101612.50;;;20.16;52.82
63395;BME280;49531;-34.520;150.798;2023-04-20T08:22:30;101612.84;;;20.20;52.94
63395;BME280;49531;-34.520;150.798;2023-04-20T08:24:57;101623.09;;;20.18;52.87
63395;BME280;49531;-34.520;150.798;2023-04-20T08:27:25;101592.00;;;19.97;53.02
63395;BME280;49531;-34.520;150.798;2023-04-20T08:29:55;101623.22;;;20.11;53.05
63395;BME280;49531;-34.520;150.798;2023-04-20T08:32:22;101604.72;;;19.96;52.76
63395;BME280;49531;-34.520;150.798;2023-04-20T08:34:52;101616.84;;;20.06;52.95
63395;BME280;49531;-34.520;150.798;2023-04-20T08:37:19;101638.53;;;20.06;53.19
63395;BME280;49531;-34.520;150.798;2023-04-20T08:39:46;101639.97;;;20.08;52.90
63395;BME280;49531;-34.520;150.798;2023-04-20T08:42:13;101635.72;;;20.01;52.99
63395;BME280;49531;-34.520;150.798;2023-04-20T08:44:42;101623.44;;;19.86;53.02
63395;BME280;49531;-34.520;150.798;2023-04-20T08:47:10;101652.34;;;20.04;53.06
63395;BME280;49531;-34.520;150.798;2023-04-20T08:49:38;101654.59;;;20.07;53.17
63395;BME280;49531;-34.520;150.798;2023-04-20T08:52:05;101654.34;;;20.09;53.06
63395;BME280;49531;-34.520;150.798;2023-04-20T08:54:36;101656.34;;;20.13;53.17
63395;BME280;49531;-34.520;150.798;2023-04-20T08:57:04;101663.78;;;20.18;52.86
63395;BME280;49531;-34.520;150.798;2023-04-20T08:59:31;101667.44;;;20.12;53.16
63395;BME280;49531;-34.520;150.798;2023-04-20T09:02:10;101651.66;;;19.97;53.01
63395;BME280;49531;-34.520;150.798;2023-04-20T09:04:39;101675.13;;;20.15;53.19
63395;BME280;49531;-34.520;150.798;2023-04-20T09:07:15;101680.28;;;20.05;53.68
63395;BME280;49531;-34.520;150.798;2023-04-20T09:09:53;101679.22;;;20.06;53.23
63395;BME280;49531;-34.520;150.798;2023-04-20T09:12:21;101684.88;;;20.04;53.04
63395;BME280;49531;-34.520;150.798;2023-04-20T09:14:50;101687.22;;;20.01;52.98
63395;BME280;49531;-34.520;150.798;2023-04-20T09:17:30;101695.50;;;19.94;53.14
63395;BME280;49531;-34.520;150.798;2023-04-20T09:19:57;101684.88;;;19.92;53.25
63395;BME280;49531;-34.520;150.798;2023-04-20T09:22:30;101687.13;;;19.95;52.95
63395;BME280;49531;-34.520;150.798;2023-04-20T09:24:58;101693.97;;;20.10;52.76
63395;BME280;49531;-34.520;150.798;2023-04-20T09:27:26;101697.03;;;20.13;52.55
63395;BME280;49531;-34.520;150.798;2023-04-20T09:29:58;101694.06;;;20.03;52.51
63395;BME280;49531;-34.520;150.798;2023-04-20T09:32:27;101697.75;;;20.09;52.28
63395;BME280;49531;-34.520;150.798;2023-04-20T09:34:55;101701.06;;;20.11;52.50
63395;BME280;49531;-34.520;150.798;2023-04-20T09:37:22;101673.44;;;19.90;52.82
63395;BME280;49531;-34.520;150.798;2023-04-20T09:39:49;101696.56;;;20.05;52.53
63395;BME280;49531;-34.520;150.798;2023-04-20T09:42:17;101699.72;;;20.02;52.69
63395;BME280;49531;-34.520;150.798;2023-04-20T09:44:44;101694.69;;;19.93;52.90
63395;BME280;49531;-34.520;150.798;2023-04-20T09:47:16;101718.72;;;20.02;52.88
63395;BME280;49531;-34.520;150.798;2023-04-20T09:49:44;101716.72;;;19.97;52.79
63395;BME280;49531;-34.520;150.798;2023-04-20T09:52:16;101717.78;;;19.96;52.91
63395;BME280;49531;-34.520;150.798;2023-04-20T09:54:44;101704.19;;;19.84;52.81
63395;BME280;49531;-34.520;150.798;2023-04-20T09:57:13;101699.91;;;19.77;52.82
63395;BME280;49531;-34.520;150.798;2023-04-20T09:59:42;101724.81;;;19.85;52.80
63395;BME280;49531;-34.520;150.798;2023-04-20T10:02:10;101723.63;;;19.81;52.93
63395;BME280;49531;-34.520;150.798;2023-04-20T10:04:51;101716.56;;;19.80;52.72
63395;BME280;49531;-34.520;150.798;2023-04-20T10:07:24;101709.38;;;19.86;52.50
63395;BME280;49531;-34.520;150.798;2023-04-20T10:10:04;101707.63;;;19.91;52.55
63395;BME280;49531;-34.520;150.798;2023-04-20T10:12:32;101706.81;;;19.91;52.46
63395;BME280;49531;-34.520;150.798;2023-04-20T10:15:02;101721.41;;;19.90;52.60
63395;BME280;49531;-34.520;150.798;2023-04-20T10:17:31;101729.94;;;19.93;52.66
63395;BME280;49531;-34.520;150.798;2023-04-20T10:19:59;101715.16;;;19.89;52.73
63395;BME280;49531;-34.520;150.798;2023-04-20T10:22:28;101724.72;;;20.04;52.61
63395;BME280;49531;-34.520;150.798;2023-04-20T10:24:59;101707.88;;;20.02;52.35
63395;BME280;49531;-34.520;150.798;2023-04-20T10:27:27;101726.28;;;20.11;52.43
63395;BME280;49531;-34.520;150.798;2023-04-20T10:30:09;101723.22;;;20.08;52.46
63395;BME280;49531;-34.520;150.798;2023-04-20T10:32:36;101727.91;;;20.01;52.77
63395;BME280;49531;-34.520;150.798;2023-04-20T10:35:05;101736.19;;;20.06;52.68
63395;BME280;49531;-34.520;150.798;2023-04-20T10:37:33;101728.88;;;20.06;52.64
63395;BME280;49531;-34.520;150.798;2023-04-20T10:40:01;101731.69;;;19.99;52.78
63395;BME280;49531;-34.520;150.798;2023-04-20T10:42:41;101725.56;;;19.92;52.96
63395;BME280;49531;-34.520;150.798;2023-04-20T10:45:08;101735.94;;;19.95;53.07
63395;BME280;49531;-34.520;150.798;2023-04-20T10:47:36;101738.88;;;19.94;52.97
63395;BME280;49531;-34.520;150.798;2023-04-20T10:50:12;101706.63;;;19.74;53.10
63395;BME280;49531;-34.520;150.798;2023-04-20T10:52:42;101739.72;;;19.94;53.03
63395;BME280;49531;-34.520;150.798;2023-04-20T10:55:22;101743.25;;;19.95;52.94
63395;BME280;49531;-34.520;150.798;2023-04-20T10:57:50;101744.31;;;19.94;53.04
63395;BME280;49531;-34.520;150.798;2023-04-20T11:00:19;101742.88;;;19.91;53.20
63395;BME280;49531;-34.520;150.798;2023-04-20T11:02:49;101740.88;;;19.87;53.19
63395;BME280;49531;-34.520;150.798;2023-04-20T11:05:18;101745.22;;;19.88;53.17
63395;BME280;49531;-34.520;150.798;2023-04-20T11:07:56;101752.06;;;19.90;53.19
63395;BME280;49531;-34.520;150.798;2023-04-20T11:10:37;101765.41;;;19.92;53.02
63395;BME280;49531;-34.520;150.798;2023-04-20T11:13:04;101745.47;;;19.86;53.08
63395;BME280;49531;-34.520;150.798;2023-04-20T11:15:32;101751.47;;;19.88;53.02
63395;BME280;49531;-34.520;150.798;2023-04-20T11:18:07;101755.53;;;19.97;52.94
63395;BME280;49531;-34.520;150.798;2023-04-20T11:20:34;101759.16;;;20.03;52.80
63395;BME280;49531;-34.520;150.798;2023-04-20T11:23:02;101761.28;;;20.01;52.87
63395;BME280;49531;-34.520;150.798;2023-04-20T11:25:31;101736.72;;;19.84;52.86
63395;BME280;49531;-34.520;150.798;2023-04-20T11:28:08;101769.19;;;20.03;52.74
63395;BME280;49531;-34.520;150.798;2023-04-20T11:30:40;101754.19;;;20.00;52.59
63395;BME280;49531;-34.520;150.798;2023-04-20T11:33:08;101772.03;;;20.08;52.66
63395;BME280;49531;-34.520;150.798;2023-04-20T11:35:37;101758.09;;;20.04;52.57
63395;BME280;49531;-34.520;150.798;2023-04-20T11:38:05;101760.81;;;20.04;52.54
63395;BME280;49531;-34.520;150.798;2023-04-20T11:40:33;101766.84;;;20.06;52.54
63395;BME280;49531;-34.520;150.798;2023-04-20T11:43:00;101762.38;;;20.12;52.54
63395;BME280;49531;-34.520;150.798;2023-04-20T11:45:31;101773.69;;;20.09;52.45
63395;BME280;49531;-34.520;150.798;2023-04-20T11:48:00;101764.13;;;20.06;52.57
63395;BME280;49531;-34.520;150.798;2023-04-20T11:50:27;101756.22;;;20.05;52.55
63395;BME280;49531;-34.520;150.798;2023-04-20T11:52:54;101759.41;;;20.02;52.62
63395;BME280;49531;-34.520;150.798;2023-04-20T11:55:22;101746.19;;;19.93;52.51
63395;BME280;49531;-34.520;150.798;2023-04-20T11:57:49;101755.03;;;20.01;52.59
63395;BME280;49531;-34.520;150.798;2023-04-20T12:00:16;101757.63;;;19.95;52.59
63395;BME280;49531;-34.520;150.798;2023-04-20T12:02:44;101755.53;;;19.97;52.66
63395;BME280;49531;-34.520;150.798;2023-04-20T12:05:11;101765.78;;;19.95;52.46
63395;BME280;49531;-34.520;150.798;2023-04-20T12:07:39;101768.84;;;19.99;52.57
63395;BME280;49531;-34.520;150.798;2023-04-20T12:10:07;101770.47;;;20.00;52.48
63395;BME280;49531;-34.520;150.798;2023-04-20T12:12:34;101762.59;;;19.98;52.66
63395;BME280;49531;-34.520;150.798;2023-04-20T12:15:02;101771.56;;;19.99;52.59
63395;BME280;49531;-34.520;150.798;2023-04-20T12:17:29;101767.28;;;19.91;52.63
63395;BME280;49531;-34.520;150.798;2023-04-20T12:19:56;101764.72;;;19.96;52.44
63395;BME280;49531;-34.520;150.798;2023-04-20T12:22:24;101762.47;;;19.93;52.55
63395;BME280;49531;-34.520;150.798;2023-04-20T12:24:52;101770.97;;;19.97;52.61